createdAt,value
2019-03-22T00:04:23.670Z,4.50
2019-03-22T00:09:31.015Z,4.50
2019-03-22T00:14:38.440Z,4.40
2019-03-22T00:19:45.783Z,4.30
2019-03-22T00:24:53.230Z,4.30
2019-03-22T00:30:00.598Z,4.30
2019-03-22T00:35:08.577Z,4.40
2019-03-22T00:40:17.464Z,4.40
2019-03-22T00:45:24.851Z,4.30
2019-03-22T00:50:32.213Z,4.20
2019-03-22T00:55:39.404Z,4.00
2019-03-22T01:00:46.739Z,4.00
2019-03-22T01:05:54.167Z,3.90
2019-03-22T01:11:01.527Z,3.80
2019-03-22T01:16:08.866Z,3.80
2019-03-22T01:21:16.128Z,3.80
2019-03-22T01:26:23.453Z,3.70
2019-03-22T01:31:30.768Z,3.80
2019-03-22T01:36:38.185Z,3.70
2019-03-22T01:41:45.753Z,3.70
2019-03-22T01:46:53.180Z,3.70
2019-03-22T01:52:00.601Z,3.60
2019-03-22T01:57:07.958Z,3.60
2019-03-22T02:02:15.236Z,3.50
2019-03-22T02:07:22.675Z,3.50
2019-03-22T02:12:30.199Z,3.40
2019-03-22T02:17:37.618Z,3.40
2019-03-22T02:22:45.243Z,3.40
2019-03-22T02:28:03.517Z,3.30
2019-03-22T02:33:01.757Z,3.30
2019-03-22T02:38:09.118Z,3.40
2019-03-22T02:43:16.409Z,3.50
2019-03-22T02:48:23.841Z,3.40
2019-03-22T02:53:31.114Z,3.30
2019-03-22T02:58:38.550Z,3.30
2019-03-22T03:03:45.898Z,3.20
2019-03-22T03:08:53.095Z,3.30
2019-03-22T03:14:00.379Z,3.30
2019-03-22T03:19:07.769Z,3.30
2019-03-22T03:24:15.191Z,3.40
2019-03-22T03:29:22.453Z,3.40
2019-03-22T03:34:29.850Z,3.40
2019-03-22T03:39:37.199Z,3.40
2019-03-22T03:44:44.612Z,3.30
2019-03-22T03:49:51.965Z,3.30
2019-03-22T03:54:59.387Z,3.30
2019-03-22T04:00:08.975Z,3.30
2019-03-22T04:05:16.493Z,3.30
2019-03-22T04:10:23.976Z,3.20
2019-03-22T04:15:31.399Z,3.10
2019-03-22T04:20:38.807Z,3.00
2019-03-22T04:25:46.246Z,3.00
2019-03-22T04:30:53.647Z,2.90
2019-03-22T04:36:01.979Z,2.90
2019-03-22T04:41:09.766Z,2.90
2019-03-22T04:46:18.664Z,2.90
2019-03-22T04:51:26.472Z,2.80
2019-03-22T04:56:37.818Z,2.80
2019-03-22T05:01:49.696Z,2.70
2019-03-22T05:06:59.304Z,2.70
2019-03-22T05:12:08.888Z,2.60
2019-03-22T05:17:17.015Z,2.60
2019-03-22T05:22:28.437Z,2.60
2019-03-22T05:27:40.162Z,2.60
2019-03-22T05:32:47.388Z,2.70
2019-03-22T05:37:54.656Z,2.80
2019-03-22T05:43:01.923Z,2.90
2019-03-22T05:48:09.490Z,3.00
2019-03-22T05:53:16.935Z,3.00
2019-03-22T05:58:25.671Z,3.20
2019-03-22T06:03:32.868Z,3.50
2019-03-22T06:08:40.232Z,3.60
2019-03-22T06:13:48.416Z,3.70
2019-03-22T06:18:55.965Z,3.70
2019-03-22T06:24:03.389Z,3.90
2019-03-22T06:29:10.877Z,4.10
2019-03-22T06:34:18.183Z,4.40
2019-03-22T06:39:25.538Z,4.70
2019-03-22T06:44:32.970Z,4.90
2019-03-22T06:49:40.237Z,5.40
2019-03-22T06:54:47.512Z,5.80
2019-03-22T07:00:05.885Z,6.10
2019-03-22T07:05:03.964Z,6.50
2019-03-22T07:10:13.002Z,6.70
2019-03-22T07:15:20.514Z,7.00
2019-03-22T07:20:27.931Z,7.40
2019-03-22T07:25:35.481Z,7.70
2019-03-22T07:30:42.909Z,8.00
2019-03-22T07:35:50.367Z,8.30
2019-03-22T07:40:57.719Z,8.70
2019-03-22T07:46:05.152Z,8.90
2019-03-22T07:51:12.499Z,9.20
2019-03-22T07:56:19.864Z,9.50
2019-03-22T08:01:27.300Z,9.80
2019-03-22T08:06:34.586Z,10.00
2019-03-22T08:11:42.514Z,10.10
2019-03-22T08:16:50.943Z,10.30
2019-03-22T08:21:58.432Z,10.50
2019-03-22T08:27:05.856Z,10.70
2019-03-22T08:32:13.563Z,11.00
2019-03-22T08:37:20.849Z,11.40
2019-03-22T08:42:28.134Z,11.70
2019-03-22T08:47:35.405Z,12.00
2019-03-22T08:52:42.873Z,12.30
2019-03-22T08:57:50.297Z,12.60
2019-03-22T09:02:57.639Z,12.90
2019-03-22T09:08:05.101Z,13.20
2019-03-22T09:13:12.534Z,13.40
2019-03-22T09:18:19.808Z,13.70
2019-03-22T09:23:27.188Z,14.10
2019-03-22T09:28:34.576Z,14.30
2019-03-22T09:33:42.115Z,14.50
2019-03-22T09:38:49.566Z,14.70
2019-03-22T09:43:56.986Z,14.90
2019-03-22T09:49:04.579Z,15.10
2019-03-22T09:54:12.150Z,15.20
2019-03-22T09:59:19.580Z,15.30
2019-03-22T10:04:27.038Z,15.40
2019-03-22T10:09:34.267Z,15.60
2019-03-22T10:14:41.733Z,15.50
2019-03-22T10:19:49.112Z,15.70
2019-03-22T10:24:56.525Z,16.10
2019-03-22T10:30:04.197Z,16.30
2019-03-22T10:35:25.393Z,16.30
2019-03-22T10:40:21.962Z,16.50
2019-03-22T10:45:29.504Z,16.40
2019-03-22T10:50:36.999Z,16.80
2019-03-22T10:55:44.415Z,16.80
2019-03-22T11:00:51.861Z,17.10
2019-03-22T11:05:59.314Z,17.10
2019-03-22T11:11:06.832Z,17.40
2019-03-22T11:16:14.278Z,17.40
2019-03-22T11:21:23.650Z,17.40
2019-03-22T11:26:31.132Z,17.50
2019-03-22T11:31:40.117Z,17.80
2019-03-22T11:36:47.953Z,17.80
2019-03-22T11:41:55.336Z,17.80
2019-03-22T11:47:02.796Z,17.90
2019-03-22T11:52:10.165Z,18.10
2019-03-22T11:57:17.629Z,17.90
2019-03-22T12:02:25.261Z,18.00
2019-03-22T12:07:32.577Z,18.10
2019-03-22T12:12:40.162Z,18.30
2019-03-22T12:17:47.719Z,18.30
2019-03-22T12:22:55.270Z,18.40
2019-03-22T12:28:02.746Z,18.60
2019-03-22T12:33:10.240Z,18.40
2019-03-22T12:38:18.934Z,18.40
2019-03-22T12:43:26.342Z,18.80
2019-03-22T12:48:33.637Z,19.00
2019-03-22T12:53:46.204Z,19.30
2019-03-22T12:58:53.881Z,19.40
2019-03-22T13:04:01.318Z,19.70
2019-03-22T13:09:10.898Z,19.70
2019-03-22T13:14:18.380Z,19.90
2019-03-22T13:19:25.782Z,20.10
2019-03-22T13:24:33.327Z,20.00
2019-03-22T13:29:40.773Z,20.20
2019-03-22T13:34:48.323Z,20.10
2019-03-22T13:39:55.767Z,20.30
2019-03-22T13:45:03.320Z,20.40
2019-03-22T13:50:12.227Z,20.10
2019-03-22T13:55:19.626Z,20.40
2019-03-22T14:00:27.281Z,20.40
2019-03-22T14:05:34.841Z,20.40
2019-03-22T14:10:42.202Z,20.30
2019-03-22T14:15:49.646Z,20.50
2019-03-22T14:20:57.192Z,20.50
2019-03-22T14:26:04.774Z,20.30
2019-03-22T14:31:12.185Z,20.30
2019-03-22T14:36:19.700Z,20.20
2019-03-22T14:41:26.998Z,20.30
2019-03-22T14:46:34.289Z,19.90
2019-03-22T14:51:41.568Z,20.00
2019-03-22T14:56:48.933Z,20.10
2019-03-22T15:01:56.229Z,20.20
2019-03-22T15:07:03.617Z,20.10
2019-03-22T15:12:11.043Z,20.00
2019-03-22T15:17:42.119Z,19.80
2019-03-22T15:23:07.183Z,19.90
2019-03-22T15:28:37.967Z,19.80
2019-03-22T15:34:13.229Z,19.60
2019-03-22T15:39:59.011Z,19.60
2019-03-22T15:45:08.628Z,19.40
2019-03-22T15:50:17.481Z,19.50
2019-03-22T15:55:24.892Z,19.30
2019-03-22T16:00:32.258Z,19.00
2019-03-22T16:05:39.726Z,18.80
2019-03-22T16:10:47.192Z,18.70
2019-03-22T16:15:54.719Z,18.40
2019-03-22T16:21:02.100Z,18.20
2019-03-22T16:26:09.956Z,17.80
2019-03-22T16:31:18.443Z,17.50
2019-03-22T16:36:25.931Z,17.30
2019-03-22T16:41:33.404Z,17.00
2019-03-22T16:46:40.718Z,16.80
2019-03-22T16:51:48.107Z,16.50
2019-03-22T16:56:55.546Z,16.40
2019-03-22T17:02:02.960Z,16.20
2019-03-22T17:07:10.317Z,16.10
2019-03-22T17:12:20.795Z,15.90
2019-03-22T17:17:29.883Z,15.70
2019-03-22T17:22:37.275Z,15.50
2019-03-22T17:27:44.742Z,15.30
2019-03-22T17:32:52.203Z,15.10
2019-03-22T17:37:59.646Z,14.90
2019-03-22T17:43:07.260Z,14.70
2019-03-22T17:48:14.735Z,14.50
2019-03-22T17:53:22.022Z,14.30
2019-03-22T17:58:29.265Z,14.20
2019-03-22T18:03:36.567Z,14.00
2019-03-22T18:08:44.037Z,13.80
2019-03-22T18:13:51.331Z,13.70
2019-03-22T18:18:58.773Z,13.60
2019-03-22T18:24:06.395Z,13.40
2019-03-22T18:29:13.769Z,13.20
2019-03-22T18:34:21.174Z,13.10
2019-03-22T18:39:28.580Z,13.10
2019-03-22T18:44:36.044Z,12.90
2019-03-22T18:49:43.404Z,12.80
2019-03-22T18:54:50.888Z,12.70
2019-03-22T18:59:58.348Z,12.40
2019-03-22T19:05:07.276Z,12.10
2019-03-22T19:10:15.009Z,11.80
2019-03-22T19:15:22.345Z,11.70
2019-03-22T19:20:30.763Z,11.60
2019-03-22T19:25:38.037Z,11.60
2019-03-22T19:30:45.425Z,11.50
2019-03-22T19:35:52.749Z,11.30
2019-03-22T19:41:00.133Z,11.20
2019-03-22T19:46:07.809Z,11.00
2019-03-22T19:51:16.409Z,10.90
2019-03-22T19:56:24.151Z,10.50
2019-03-22T20:01:31.493Z,10.20
2019-03-22T20:06:38.796Z,10.10
2019-03-22T20:11:46.168Z,10.00
2019-03-22T20:16:53.604Z,10.00
2019-03-22T20:22:01.854Z,10.00
2019-03-22T20:27:09.388Z,10.00
2019-03-22T20:32:16.942Z,10.00
2019-03-22T20:37:24.297Z,10.00
2019-03-22T20:42:31.583Z,9.90
2019-03-22T20:47:38.914Z,9.80
2019-03-22T20:52:46.279Z,9.70
2019-03-22T20:57:53.690Z,9.50
2019-03-22T21:03:01.118Z,9.40
2019-03-22T21:08:08.679Z,9.30
2019-03-22T21:13:16.242Z,9.50
2019-03-22T21:18:23.497Z,9.40
2019-03-22T21:23:36.269Z,9.20
2019-03-22T21:28:39.920Z,9.10
2019-03-22T21:33:47.213Z,9.00
2019-03-22T21:38:54.630Z,8.90
2019-03-22T21:44:02.041Z,8.80
2019-03-22T21:49:09.651Z,8.70
2019-03-22T21:54:17.305Z,8.70
2019-03-22T21:59:24.582Z,8.80
2019-03-22T22:04:31.851Z,8.90
2019-03-22T22:09:39.283Z,8.90
2019-03-22T22:14:46.635Z,8.80
2019-03-22T22:19:53.977Z,8.70
2019-03-22T22:25:01.406Z,8.60
2019-03-22T22:30:10.264Z,8.40
2019-03-22T22:35:18.866Z,8.10
2019-03-22T22:40:26.205Z,8.00
2019-03-22T22:45:33.624Z,8.00
2019-03-22T22:50:40.980Z,7.80
2019-03-22T22:55:48.271Z,7.70
2019-03-22T23:00:55.775Z,7.60
2019-03-22T23:06:09.312Z,7.40
2019-03-22T23:11:13.829Z,7.20
2019-03-22T23:16:21.187Z,7.20
2019-03-22T23:21:28.539Z,7.20
2019-03-22T23:26:35.876Z,7.10
2019-03-22T23:31:43.259Z,7.00
2019-03-22T23:36:51.687Z,6.90
2019-03-22T23:41:59.031Z,6.80
2019-03-22T23:47:06.446Z,6.60
2019-03-22T23:52:13.862Z,6.60
2019-03-22T23:57:21.280Z,6.50
